Time;durP1;ratioP1;P1;durP2;ratioP2;P2;SDS_P1;SDS_P2;PMS_P1;PMS_P2;Temp;Humidity;BMP_temperature;BMP_pressure;BME280_temperature;BME280_humidity;BME280_pressure;Samples;Min_cycle;Max_cycle;Signal;HPM_P1;HPM_P2
2023/08/21 00:01:36;;;;;;;7.90;3.95;;;26.60;99.90;;;;;;5096906;28;20056;-71
2023/08/21 00:04:02;;;;;;;14.02;6.03;;;26.60;99.90;;;;;;5096554;28;20095;-71
2023/08/21 00:06:28;;;;;;;13.30;5.78;;;26.50;99.90;;;;;;5095355;28;20063;-71
2023/08/21 00:08:54;;;;;;;12.82;4.85;;;26.50;99.90;;;;;;5094553;28;20016;-71
2023/08/21 00:11:19;;;;;;;10.70;3.88;;;26.40;99.90;;;;;;5096659;28;20063;-73
2023/08/21 00:13:47;;;;;;;8.30;3.72;;;26.40;99.90;;;;;;5095086;28;20156;-70
2023/08/21 00:16:13;;;;;;;14.07;5.05;;;26.30;99.90;;;;;;5095049;28;20031;-72
2023/08/21 00:18:39;;;;;;;11.18;4.05;;;26.30;99.90;;;;;;5096556;28;20028;-73
2023/08/21 00:21:05;;;;;;;11.45;3.35;;;26.20;99.90;;;;;;5094805;28;20081;-72
2023/08/21 00:23:31;;;;;;;15.45;4.18;;;26.10;99.90;;;;;;5095200;28;20017;-71
2023/08/21 00:25:57;;;;;;;13.70;4.30;;;26.10;99.90;;;;;;5096083;28;20047;-71
2023/08/21 00:28:22;;;;;;;15.38;3.83;;;26.10;99.90;;;;;;5096282;28;20395;-72
2023/08/21 00:30:48;;;;;;;11.38;3.90;;;26.00;99.90;;;;;;5096201;28;20832;-71
2023/08/21 00:33:14;;;;;;;12.55;4.25;;;25.90;99.90;;;;;;5096264;28;20043;-71
2023/08/21 00:35:39;;;;;;;10.82;3.90;;;25.90;99.90;;;;;;5096026;28;20504;-72
2023/08/21 00:38:05;;;;;;;7.43;3.20;;;25.80;99.90;;;;;;5096171;28;20028;-72
2023/08/21 00:40:31;;;;;;;13.05;4.07;;;25.70;99.90;;;;;;5095991;28;20034;-71
2023/08/21 00:42:57;;;;;;;13.48;3.88;;;25.70;99.90;;;;;;5096039;28;20510;-71
2023/08/21 00:45:23;;;;;;;7.05;3.00;;;25.60;99.90;;;;;;5095856;28;20031;-72
2023/08/21 00:47:49;;;;;;;12.27;3.95;;;25.50;99.90;;;;;;5094835;28;20027;-71
2023/08/21 00:50:15;;;;;;;10.05;4.45;;;25.40;99.90;;;;;;5095649;28;20476;-71
2023/08/21 00:52:44;;;;;;;7.97;3.65;;;25.40;99.90;;;;;;5096118;28;20020;-72
2023/08/21 00:55:10;;;;;;;10.65;3.53;;;25.40;99.90;;;;;;5095906;28;20059;-72
2023/08/21 00:57:37;;;;;;;9.63;3.13;;;25.30;99.90;;;;;;5095863;28;20395;-70
2023/08/21 01:00:04;;;;;;;11.88;3.65;;;25.30;99.90;;;;;;5095759;28;20035;-74
2023/08/21 01:02:30;;;;;;;7.85;3.28;;;25.20;99.90;;;;;;5095921;28;20041;-73
2023/08/21 01:04:56;;;;;;;15.77;4.68;;;25.20;99.90;;;;;;5095659;28;20027;-72
2023/08/21 01:07:21;;;;;;;9.65;3.55;;;25.20;99.90;;;;;;5095702;28;20020;-71
2023/08/21 01:10:09;;;;;;;11.63;4.82;;;25.10;99.90;;;;;;5095652;28;20016;-71
2023/08/21 01:12:45;;;;;;;6.95;3.30;;;25.00;99.90;;;;;;5095604;28;20103;-72
2023/08/21 01:15:13;;;;;;;12.02;3.63;;;25.00;99.90;;;;;;5088189;28;20107;-71
2023/08/21 01:17:40;;;;;;;16.15;3.90;;;24.90;99.90;;;;;;5095235;28;20024;-72
2023/08/21 01:20:10;;;;;;;12.95;4.18;;;24.90;99.90;;;;;;5094094;28;20030;-72
2023/08/21 01:22:37;;;;;;;;;;;24.90;99.90;;;;;;5082677;28;20012;-72
2023/08/21 01:25:07;;;;;;;13.07;4.22;;;24.80;99.90;;;;;;5095195;28;20002;-71
2023/08/21 01:27:36;;;;;;;10.15;3.97;;;24.80;99.90;;;;;;5095432;28;20031;-71
2023/08/21 01:30:06;;;;;;;11.75;3.65;;;24.70;99.90;;;;;;5095364;28;20166;-72
2023/08/21 01:32:53;;;;;;;8.82;4.20;;;24.70;99.90;;;;;;5095449;28;20017;-70
2023/08/21 01:35:20;;;;;;;15.40;5.15;;;24.60;99.90;;;;;;5095113;28;20024;-71
2023/08/21 01:37:46;;;;;;;5.63;3.20;;;24.60;99.90;;;;;;5095515;28;20024;-72
2023/08/21 01:40:19;;;;;;;11.85;3.65;;;24.60;99.90;;;;;;5095248;28;20020;-72
2023/08/21 01:42:45;;;;;;;7.53;3.33;;;24.50;99.90;;;;;;5095439;28;20107;-70
2023/08/21 01:45:10;;;;;;;9.63;4.10;;;24.50;99.90;;;;;;5095149;28;20056;-71
2023/08/21 01:47:36;;;;;;;10.32;3.65;;;24.40;99.90;;;;;;5095388;28;20523;-71
2023/08/21 01:50:02;;;;;;;9.63;3.78;;;24.40;99.90;;;;;;5093594;28;20326;-71
2023/08/21 01:52:27;;;;;;;10.50;3.92;;;24.30;99.90;;;;;;5093964;28;20475;-71
2023/08/21 01:54:53;;;;;;;11.35;3.78;;;24.30;99.90;;;;;;5093757;28;20020;-71
2023/08/21 01:57:19;;;;;;;7.50;3.47;;;24.20;99.90;;;;;;5095064;28;20036;-71
2023/08/21 01:59:44;;;;;;;8.95;3.63;;;24.20;99.90;;;;;;5093880;28;20039;-71
2023/08/21 02:02:10;;;;;;;9.80;4.07;;;24.10;99.90;;;;;;5093787;28;20024;-71
2023/08/21 02:04:36;;;;;;;8.77;3.60;;;24.00;99.90;;;;;;5094813;28;20024;-71
2023/08/21 02:07:01;;;;;;;9.10;3.95;;;24.10;99.90;;;;;;5093245;28;20039;-70
2023/08/21 02:09:27;;;;;;;13.38;3.83;;;24.00;99.90;;;;;;5095010;28;20008;-71
2023/08/21 02:11:53;;;;;;;11.32;3.58;;;23.90;99.90;;;;;;5094951;28;20058;-71
2023/08/21 02:14:18;;;;;;;14.05;4.22;;;23.90;99.90;;;;;;5094930;28;20027;-71
2023/08/21 02:16:44;;;;;;;11.50;4.38;;;23.90;99.90;;;;;;5095162;28;20029;-71
2023/08/21 02:19:09;;;;;;;9.38;3.78;;;23.90;99.90;;;;;;5094704;28;20020;-70
2023/08/21 02:21:36;;;;;;;14.43;4.57;;;23.80;99.90;;;;;;5094974;28;20387;-70
2023/08/21 02:24:02;;;;;;;10.98;3.80;;;23.80;99.90;;;;;;5094794;28;20116;-70
2023/08/21 02:26:27;;;;;;;12.23;5.13;;;23.80;99.90;;;;;;5086680;28;20064;-71
2023/08/21 02:28:53;;;;;;;9.77;3.35;;;23.70;99.90;;;;;;5094745;28;20549;-70
2023/08/21 02:31:19;;;;;;;7.85;3.25;;;23.70;99.90;;;;;;5093748;28;20545;-71
2023/08/21 02:33:45;;;;;;;12.93;4.10;;;23.70;99.90;;;;;;5097923;28;20028;-70
2023/08/21 02:36:10;;;;;;;8.07;3.70;;;23.60;99.90;;;;;;5090062;28;20103;-71
2023/08/21 02:38:36;;;;;;;8.95;3.92;;;23.60;99.90;;;;;;5098285;28;20478;-71
2023/08/21 02:41:01;;;;;;;11.15;3.83;;;23.60;99.90;;;;;;5098579;28;20521;-71
2023/08/21 02:43:28;;;;;;;10.73;3.78;;;23.60;99.90;;;;;;5098271;28;20054;-71
2023/08/21 02:45:53;;;;;;;10.43;3.75;;;23.50;99.90;;;;;;5098392;28;20099;-71
2023/08/21 02:48:19;;;;;;;10.68;4.18;;;23.40;99.90;;;;;;5098065;28;20055;-71
2023/08/21 02:50:45;;;;;;;8.52;3.88;;;23.40;99.90;;;;;;5098078;28;20120;-71
2023/08/21 02:53:11;;;;;;;12.30;4.82;;;23.40;99.90;;;;;;5098064;28;20016;-71
2023/08/21 02:55:36;;;;;;;7.88;3.40;;;23.30;99.90;;;;;;5098332;28;20028;-70
2023/08/21 02:58:02;;;;;;;11.48;3.80;;;23.30;99.90;;;;;;5094007;28;20032;-71
2023/08/21 03:00:28;;;;;;;9.35;3.90;;;23.30;99.90;;;;;;5097894;28;20038;-71
2023/08/21 03:02:54;;;;;;;7.22;3.80;;;23.20;99.90;;;;;;5086533;28;20021;-71
2023/08/21 03:05:20;;;;;;;8.48;3.40;;;23.20;99.90;;;;;;5097295;28;20654;-71
2023/08/21 03:07:45;;;;;;;9.85;3.55;;;23.20;99.90;;;;;;5097393;28;20091;-71
2023/08/21 03:10:11;;;;;;;9.77;4.03;;;23.20;99.90;;;;;;5097930;28;20059;-72
2023/08/21 03:12:36;;;;;;;10.90;4.05;;;23.10;99.90;;;;;;5097490;28;20099;-71
2023/08/21 03:15:03;;;;;;;9.55;3.72;;;23.10;99.90;;;;;;5096396;28;20036;-71
2023/08/21 03:17:28;;;;;;;8.25;3.53;;;23.10;99.90;;;;;;5097522;28;20027;-71
2023/08/21 03:19:54;;;;;;;7.95;3.53;;;23.10;99.90;;;;;;5097454;28;20027;-71
2023/08/21 03:22:20;;;;;;;11.30;3.92;;;23.00;99.90;;;;;;5095996;28;20012;-71
2023/08/21 03:24:45;;;;;;;8.02;3.55;;;23.00;99.90;;;;;;5097414;28;20075;-71
2023/08/21 03:27:11;;;;;;;10.57;3.10;;;23.00;99.90;;;;;;5097236;28;20054;-72
2023/08/21 03:29:36;;;;;;;8.45;3.55;;;23.00;99.90;;;;;;5097606;28;20024;-71
2023/08/21 03:32:02;;;;;;;9.45;4.20;;;22.90;99.90;;;;;;5097252;28;20035;-72
2023/08/21 03:34:28;;;;;;;8.88;3.20;;;22.90;99.90;;;;;;5097305;28;20030;-71
2023/08/21 03:36:53;;;;;;;6.78;3.47;;;22.90;99.90;;;;;;5097179;28;20024;-71
2023/08/21 03:39:19;;;;;;;7.45;4.10;;;22.90;99.90;;;;;;5097498;28;20051;-71
2023/08/21 03:41:45;;;;;;;10.35;4.40;;;22.90;99.90;;;;;;5097045;28;20101;-70
2023/08/21 03:44:10;;;;;;;8.43;3.70;;;22.80;99.90;;;;;;5097258;28;20028;-70
2023/08/21 03:46:36;;;;;;;9.48;3.38;;;22.80;99.90;;;;;;5095637;28;20399;-70
2023/08/21 03:49:02;;;;;;;11.32;3.55;;;22.80;99.90;;;;;;5097005;28;20043;-72
2023/08/21 03:51:27;;;;;;;10.52;4.20;;;22.80;99.90;;;;;;5097098;28;20013;-71
2023/08/21 03:53:53;;;;;;;8.00;4.35;;;22.80;99.90;;;;;;5097020;28;20031;-71
2023/08/21 03:56:19;;;;;;;8.48;3.88;;;22.70;99.90;;;;;;5096742;28;20017;-72
2023/08/21 03:58:44;;;;;;;11.23;4.00;;;22.70;99.90;;;;;;5095410;28;20032;-72
2023/08/21 04:01:10;;;;;;;8.07;4.25;;;22.60;99.90;;;;;;5096793;28;20027;-71
2023/08/21 04:03:36;;;;;;;9.90;4.15;;;22.60;99.90;;;;;;5096915;28;20062;-72
2023/08/21 04:06:02;;;;;;;12.68;4.15;;;22.60;99.90;;;;;;5096383;28;20024;-71
2023/08/21 04:08:28;;;;;;;7.55;4.38;;;22.60;99.90;;;;;;5096790;28;20453;-72
2023/08/21 04:10:53;;;;;;;12.32;4.35;;;22.60;99.90;;;;;;5095277;28;20107;-71
2023/08/21 04:13:19;;;;;;;13.85;4.35;;;22.60;99.90;;;;;;5096609;28;20023;-72
2023/08/21 04:15:46;;;;;;;6.75;3.78;;;22.60;99.90;;;;;;5096465;28;20027;-71
2023/08/21 04:18:11;;;;;;;8.02;3.92;;;22.60;99.90;;;;;;5096496;28;20024;-71
2023/08/21 04:20:37;;;;;;;12.13;4.57;;;22.60;99.90;;;;;;5096269;28;20427;-71
2023/08/21 04:23:03;;;;;;;13.77;4.43;;;22.60;99.90;;;;;;5096590;28;20067;-72
2023/08/21 04:25:29;;;;;;;10.48;4.40;;;22.60;99.90;;;;;;5094546;28;20044;-72
2023/08/21 04:27:54;;;;;;;11.20;4.65;;;22.60;99.90;;;;;;5096426;28;20715;-72
2023/08/21 04:30:20;;;;;;;11.00;4.35;;;22.60;99.90;;;;;;5096156;28;20618;-70
2023/08/21 04:32:47;;;;;;;10.38;3.80;;;22.50;99.90;;;;;;5095084;28;20085;-69
2023/08/21 04:35:13;;;;;;;9.27;4.75;;;22.50;99.90;;;;;;5089660;28;20063;-69
2023/08/21 04:37:44;;;;;;;10.68;4.45;;;22.40;99.90;;;;;;5086015;28;20027;-69
2023/08/21 04:40:11;;;;;;;10.68;4.75;;;22.40;99.90;;;;;;5094850;28;20020;-70
2023/08/21 04:42:36;;;;;;;11.60;4.15;;;22.40;99.90;;;;;;5094073;28;20036;-69
2023/08/21 04:45:03;;;;;;;8.05;3.83;;;22.40;99.90;;;;;;5095255;28;20381;-69
2023/08/21 04:47:28;;;;;;;7.90;3.97;;;22.40;99.90;;;;;;5094476;28;20020;-70
2023/08/21 04:49:55;;;;;;;14.23;4.28;;;22.30;99.90;;;;;;5094040;28;20453;-70
2023/08/21 04:52:21;;;;;;;14.38;4.90;;;22.30;99.90;;;;;;5096051;28;20369;-70
2023/08/21 04:54:51;;;;;;;9.63;4.30;;;22.20;99.90;;;;;;5095272;28;20024;-70
2023/08/21 04:57:17;;;;;;;8.88;3.80;;;22.20;99.90;;;;;;5095775;28;20024;-70
2023/08/21 04:59:44;;;;;;;11.32;3.83;;;22.20;99.90;;;;;;5095971;28;20035;-70
2023/08/21 05:02:10;;;;;;;8.65;4.65;;;22.20;99.90;;;;;;5095864;28;20031;-70
2023/08/21 05:04:38;;;;;;;8.40;4.00;;;22.20;99.90;;;;;;5095416;28;20452;-69
2023/08/21 05:07:04;;;;;;;8.20;4.43;;;22.20;99.90;;;;;;5095557;28;20039;-70
2023/08/21 05:09:31;;;;;;;11.85;4.30;;;22.10;99.90;;;;;;5095546;28;20466;-70
2023/08/21 05:11:57;;;;;;;9.10;4.03;;;22.20;99.90;;;;;;5095528;28;20012;-70
2023/08/21 05:14:23;;;;;;;12.20;4.35;;;22.20;99.90;;;;;;5095536;28;20077;-70
2023/08/21 05:16:49;;;;;;;8.48;3.75;;;22.20;99.90;;;;;;5095530;28;20012;-70
2023/08/21 05:19:16;;;;;;;8.02;4.00;;;22.20;99.90;;;;;;5094944;28;20021;-70
2023/08/21 05:21:41;;;;;;;9.95;3.63;;;22.30;99.90;;;;;;5095479;28;20012;-70
2023/08/21 05:24:07;;;;;;;7.60;3.58;;;22.30;99.90;;;;;;5088576;28;20101;-70
2023/08/21 05:26:32;;;;;;;12.52;4.22;;;22.30;99.90;;;;;;5095348;28;20024;-70
2023/08/21 05:28:58;;;;;;;6.80;3.47;;;22.30;99.90;;;;;;5095378;28;20388;-70
2023/08/21 05:31:24;;;;;;;14.52;4.13;;;22.30;99.90;;;;;;5095421;28;20426;-70
2023/08/21 05:33:50;;;;;;;10.30;4.15;;;22.30;99.90;;;;;;5095323;28;20035;-70
2023/08/21 05:36:15;;;;;;;12.10;3.50;;;22.40;99.90;;;;;;5095317;28;20032;-70
2023/08/21 05:38:41;;;;;;;9.57;3.60;;;22.30;99.90;;;;;;5093937;28;20032;-70
2023/08/21 05:41:06;;;;;;;11.57;3.50;;;22.30;99.90;;;;;;5095254;28;20031;-70
2023/08/21 05:43:34;;;;;;;17.25;4.47;;;22.30;99.90;;;;;;5095012;28;20039;-69
2023/08/21 05:46:00;;;;;;;9.85;4.32;;;22.40;99.90;;;;;;5093806;28;20040;-70
2023/08/21 05:48:25;;;;;;;8.07;3.67;;;22.40;99.90;;;;;;5095044;28;20028;-70
2023/08/21 05:50:52;;;;;;;15.13;5.05;;;22.40;99.90;;;;;;5093587;28;20024;-70
2023/08/21 05:53:18;;;;;;;11.00;4.35;;;22.50;99.90;;;;;;5095277;28;20056;-69
2023/08/21 05:55:43;;;;;;;11.32;3.78;;;22.50;99.90;;;;;;5095042;28;20028;-70
2023/08/21 05:58:09;;;;;;;8.52;3.55;;;22.50;99.90;;;;;;5092571;28;20032;-70
2023/08/21 06:00:35;;;;;;;7.70;3.47;;;22.50;99.90;;;;;;5078183;28;20035;-70
2023/08/21 06:03:01;;;;;;;12.20;3.55;;;22.50;99.90;;;;;;5080904;28;20032;-69
2023/08/21 06:05:27;;;;;;;7.40;3.67;;;22.50;99.90;;;;;;5077735;28;20107;-70
2023/08/21 06:07:53;;;;;;;10.77;3.65;;;22.50;99.90;;;;;;5082440;28;20109;-70
2023/08/21 06:10:18;;;;;;;9.75;4.35;;;22.50;99.90;;;;;;5095519;28;20035;-70
2023/08/21 06:12:44;;;;;;;9.70;4.45;;;22.60;99.90;;;;;;5096504;28;20012;-70
2023/08/21 06:15:10;;;;;;;8.90;3.40;;;22.60;99.90;;;;;;5088729;28;20042;-70
2023/08/21 06:17:37;;;;;;;7.80;4.10;;;22.60;99.90;;;;;;5096644;28;20066;-70
2023/08/21 06:20:05;;;;;;;7.35;3.65;;;22.60;99.90;;;;;;5088995;28;20028;-70
2023/08/21 06:22:32;;;;;;;17.73;4.40;;;22.60;99.90;;;;;;5093884;28;20034;-70
2023/08/21 06:24:58;;;;;;;9.30;3.90;;;22.70;99.90;;;;;;5096866;28;20040;-70
2023/08/21 06:27:23;;;;;;;9.43;4.07;;;22.90;99.90;;;;;;5096996;28;20023;-70
2023/08/21 06:29:49;;;;;;;8.30;3.80;;;22.90;99.90;;;;;;5096996;28;20052;-69
2023/08/21 06:32:14;;;;;;;9.48;3.40;;;23.10;99.90;;;;;;5092050;28;20377;-69
2023/08/21 06:34:40;;;;;;;7.75;4.07;;;23.10;99.90;;;;;;5097061;28;20051;-70
2023/08/21 06:37:06;;;;;;;11.15;4.35;;;23.20;99.90;;;;;;5095835;28;20057;-70
2023/08/21 06:39:31;;;;;;;14.85;3.13;;;23.10;99.90;;;;;;5095009;28;20139;-70
2023/08/21 06:41:57;;;;;;;13.60;4.03;;;23.10;99.90;;;;;;5095464;28;20386;-69
2023/08/21 06:44:23;;;;;;;6.40;3.10;;;23.20;99.90;;;;;;5096745;28;20487;-69
2023/08/21 06:46:49;;;;;;;8.40;3.67;;;23.20;99.90;;;;;;5092276;28;20016;-69
2023/08/21 06:49:14;;;;;;;9.55;4.18;;;23.20;99.90;;;;;;5096181;28;20111;-70
2023/08/21 06:51:40;;;;;;;11.73;3.97;;;23.30;99.90;;;;;;5095800;28;20383;-70
2023/08/21 06:54:06;;;;;;;9.00;3.45;;;23.30;99.90;;;;;;5096282;28;20028;-70
2023/08/21 06:56:32;;;;;;;9.05;3.55;;;23.30;99.90;;;;;;5096577;28;20016;-69
2023/08/21 06:58:57;;;;;;;20.73;3.97;;;23.30;99.90;;;;;;5096536;28;20028;-69
2023/08/21 07:01:23;;;;;;;8.23;3.67;;;23.20;99.90;;;;;;5094410;28;20024;-70
2023/08/21 07:03:49;;;;;;;8.98;3.70;;;23.30;99.90;;;;;;5096093;28;20502;-70
2023/08/21 07:06:14;;;;;;;9.00;3.30;;;23.30;99.90;;;;;;5096149;28;20519;-70
2023/08/21 07:08:40;;;;;;;6.55;3.80;;;23.30;99.90;;;;;;5092161;28;20028;-70
2023/08/21 07:11:08;;;;;;;8.35;3.67;;;23.40;99.90;;;;;;5089092;28;20051;-69
2023/08/21 07:13:34;;;;;;;8.52;3.40;;;23.40;99.90;;;;;;5096343;28;20028;-70
2023/08/21 07:16:02;;;;;;;7.50;3.13;;;23.50;99.90;;;;;;5093593;28;20036;-70
2023/08/21 07:18:28;;;;;;;11.48;4.03;;;23.60;99.90;;;;;;5092791;28;20038;-69
2023/08/21 07:20:54;;;;;;;12.18;3.53;;;23.80;99.90;;;;;;5090825;28;20028;-70
2023/08/21 07:23:19;;;;;;;13.07;2.95;;;23.90;99.90;;;;;;5094589;28;20373;-70
2023/08/21 07:25:45;;;;;;;8.38;3.33;;;24.00;99.90;;;;;;5090267;28;20098;-70
2023/08/21 07:28:11;;;;;;;7.93;3.00;;;24.20;99.90;;;;;;5092780;28;20024;-73
2023/08/21 07:30:38;;;;;;;12.48;3.00;;;24.40;99.90;;;;;;5093389;28;20024;-72
2023/08/21 07:33:05;;;;;;;8.73;3.28;;;24.60;99.90;;;;;;5095926;28;20545;-73
2023/08/21 07:35:31;;;;;;;6.93;2.50;;;24.90;99.90;;;;;;5095950;28;20547;-72
2023/08/21 07:37:57;;;;;;;9.40;3.47;;;24.90;99.90;;;;;;5094611;28;20028;-73
2023/08/21 07:40:22;;;;;;;11.05;2.72;;;25.00;99.90;;;;;;5088610;28;20046;-72
2023/08/21 07:42:48;;;;;;;8.73;3.10;;;25.10;99.90;;;;;;5092284;28;20480;-72
2023/08/21 07:45:14;;;;;;;10.07;2.90;;;25.20;99.90;;;;;;5085971;28;20047;-72
2023/08/21 07:47:39;;;;;;;5.82;2.70;;;25.30;99.90;;;;;;5091865;28;20016;-73
2023/08/21 07:50:06;;;;;;;10.40;4.55;;;25.20;99.90;;;;;;5088459;28;20062;-73
2023/08/21 07:52:32;;;;;;;7.57;2.80;;;25.30;99.90;;;;;;5094483;28;20020;-73
2023/08/21 07:55:00;;;;;;;8.25;3.08;;;25.40;99.90;;;;;;5095438;28;20032;-72
2023/08/21 07:57:27;;;;;;;8.18;2.72;;;25.50;99.90;;;;;;5091578;28;20035;-72
2023/08/21 07:59:52;;;;;;;7.05;2.78;;;25.50;99.90;;;;;;5091594;28;20421;-73
2023/08/21 08:02:18;;;;;;;7.53;2.67;;;25.60;99.90;;;;;;5094948;28;20024;-73
2023/08/21 08:04:44;;;;;;;10.48;3.42;;;25.70;99.90;;;;;;5092658;28;20067;-74
2023/08/21 08:07:09;;;;;;;7.20;2.95;;;25.80;99.90;;;;;;5094116;28;20078;-73
2023/08/21 08:09:35;;;;;;;9.63;2.65;;;25.90;99.90;;;;;;5091221;28;20028;-72
2023/08/21 08:12:01;;;;;;;8.95;2.58;;;26.10;99.90;;;;;;5093869;28;20012;-73
2023/08/21 08:14:27;;;;;;;6.95;3.50;;;26.20;99.90;;;;;;5095051;28;20035;-72
2023/08/21 08:16:53;;;;;;;10.98;2.67;;;26.30;99.90;;;;;;5093876;28;20484;-73
2023/08/21 08:19:18;;;;;;;9.27;3.03;;;26.20;99.90;;;;;;5091575;28;20503;-72
2023/08/21 08:21:44;;;;;;;6.00;2.85;;;26.10;99.90;;;;;;5092670;28;20043;-74
2023/08/21 08:24:10;;;;;;;9.10;3.28;;;26.10;99.90;;;;;;5090795;28;20054;-73
2023/08/21 08:26:35;;;;;;;5.97;2.65;;;26.10;99.90;;;;;;5091156;28;20399;-71
2023/08/21 08:29:01;;;;;;;8.23;2.80;;;26.20;99.90;;;;;;5091890;28;20027;-74
2023/08/21 08:31:27;;;;;;;8.27;3.17;;;26.20;99.90;;;;;;5091735;28;20031;-72
2023/08/21 08:33:54;;;;;;;10.13;3.13;;;26.20;99.90;;;;;;5092935;28;20087;-72
2023/08/21 08:36:20;;;;;;;7.68;2.83;;;26.20;99.90;;;;;;5093855;28;20035;-72
2023/08/21 08:38:46;;;;;;;7.68;3.42;;;26.30;99.90;;;;;;5091449;28;20484;-73
2023/08/21 08:41:28;;;;;;;6.80;2.75;;;26.40;99.90;;;;;;5092129;28;20404;-73
2023/08/21 08:43:58;;;;;;;10.23;3.00;;;26.50;99.90;;;;;;5091324;28;20091;-72
2023/08/21 08:46:24;;;;;;;8.80;2.78;;;26.70;99.90;;;;;;5094681;28;20020;-74
2023/08/21 08:48:52;;;;;;;12.23;3.83;;;26.90;99.90;;;;;;5094809;28;20028;-73
2023/08/21 08:51:19;;;;;;;6.30;2.55;;;27.10;99.90;;;;;;5092017;28;20024;-74
2023/08/21 08:53:44;;;;;;;9.68;3.10;;;27.30;99.90;;;;;;5093950;28;20023;-75
2023/08/21 08:56:10;;;;;;;9.10;2.95;;;27.20;99.90;;;;;;5092881;28;20111;-74
2023/08/21 08:58:36;;;;;;;5.65;2.50;;;27.20;99.90;;;;;;5092669;28;20034;-75
2023/08/21 09:01:02;;;;;;;7.55;2.95;;;27.40;99.90;;;;;;5093419;28;20081;-75
2023/08/21 09:03:29;;;;;;;9.98;2.85;;;27.50;99.90;;;;;;5093019;28;20020;-74
2023/08/21 09:05:55;;;;;;;7.40;2.90;;;27.50;99.90;;;;;;5092159;28;20464;-75
2023/08/21 09:08:20;;;;;;;10.75;2.70;;;27.80;99.90;;;;;;5094128;28;20099;-75
2023/08/21 09:10:46;;;;;;;7.32;2.67;;;27.90;99.90;;;;;;5091331;28;20396;-74
2023/08/21 09:13:19;;;;;;;9.95;2.95;;;27.90;99.90;;;;;;5091536;28;20036;-75
2023/08/21 09:15:47;;;;;;;7.13;3.47;;;28.10;99.90;;;;;;5091634;28;20031;-75
2023/08/21 09:18:14;;;;;;;8.73;3.03;;;27.90;99.90;;;;;;5090659;28;20507;-74
2023/08/21 09:20:41;;;;;;;10.70;3.10;;;27.90;99.90;;;;;;5088056;28;20029;-74
2023/08/21 09:23:07;;;;;;;7.38;2.60;;;28.00;99.90;;;;;;5094000;28;20036;-76
2023/08/21 09:25:38;;;;;;;10.30;3.45;;;28.00;99.90;;;;;;5088741;28;20054;-75
2023/08/21 09:28:06;;;;;;;6.10;2.28;;;28.10;99.90;;;;;;5091867;28;20020;-75
2023/08/21 09:30:53;;;;;;;6.68;2.38;;;28.20;99.90;;;;;;5093286;28;20020;-75
2023/08/21 09:33:23;;;;;;;8.57;2.63;;;28.30;99.90;;;;;;5090850;28;20488;-77
2023/08/21 09:35:52;;;;;;;6.40;2.78;;;28.40;99.90;;;;;;5094277;28;20024;-76
2023/08/21 09:38:19;;;;;;;5.50;2.92;;;28.50;99.90;;;;;;5092448;28;20561;-76
2023/08/21 09:40:53;;;;;;;8.38;3.00;;;28.40;99.90;;;;;;5090769;28;20020;-76
2023/08/21 09:43:21;;;;;;;5.15;2.50;;;28.60;99.90;;;;;;5094809;28;20031;-76
2023/08/21 09:45:48;;;;;;;22.08;3.67;;;28.70;99.90;;;;;;5090648;28;20073;-75
2023/08/21 09:48:15;;;;;;;8.65;3.33;;;28.80;99.90;;;;;;5097356;28;20035;-75
2023/08/21 09:50:40;;;;;;;6.55;2.88;;;28.80;99.90;;;;;;5096839;28;20020;-76
2023/08/21 09:53:07;;;;;;;9.43;3.03;;;28.90;99.90;;;;;;5097608;28;20107;-76
2023/08/21 09:55:33;;;;;;;9.05;2.70;;;29.00;99.90;;;;;;5097589;28;20586;-75
2023/08/21 09:57:59;;;;;;;7.55;2.65;;;29.00;99.90;;;;;;5097739;28;20040;-75
2023/08/21 10:00:34;;;;;;;7.28;2.83;;;29.00;99.90;;;;;;5096204;28;20030;-76
2023/08/21 10:03:07;;;;;;;6.25;2.67;;;29.20;99.90;;;;;;5095930;28;20032;-75
2023/08/21 10:05:36;;;;;;;6.18;2.72;;;29.20;99.90;;;;;;5096182;28;20052;-75
2023/08/21 10:08:04;;;;;;;9.73;3.45;;;29.20;99.90;;;;;;5092282;28;20028;-75
2023/08/21 10:10:32;;;;;;;10.25;2.92;;;29.30;99.90;;;;;;5097307;28;20073;-75
2023/08/21 10:12:59;;;;;;;8.95;3.08;;;29.40;99.90;;;;;;5092915;28;20036;-73
2023/08/21 10:15:28;;;;;;;8.57;3.03;;;29.30;99.90;;;;;;5094157;28;20032;-73
2023/08/21 10:17:53;;;;;;;9.45;3.20;;;29.40;99.90;;;;;;5096937;28;20053;-74
2023/08/21 10:20:24;;;;;;;6.15;3.10;;;29.50;99.90;;;;;;5092661;28;20373;-76
2023/08/21 10:22:50;;;;;;;;;;;29.60;99.90;;;;;;5099294;28;20408;-74
2023/08/21 10:25:17;;;;;;;;;;;29.60;99.90;;;;;;5098381;28;19966;-75
2023/08/21 10:27:42;;;;;;;;;;;29.50;99.90;;;;;;5098666;28;19912;-73
2023/08/21 10:30:15;;;;;;;;;;;29.50;99.90;;;;;;5099238;28;19910;-73
2023/08/21 10:32:44;;;;;;;;;;;29.60;99.90;;;;;;5094346;28;19965;-73
2023/08/21 10:35:14;;;;;;;;;;;29.70;99.90;;;;;;5087968;28;19904;-73
2023/08/21 10:37:59;;;;;;;;;;;29.90;99.90;;;;;;5099052;28;20414;-72
2023/08/21 10:40:25;;;;;;;;;;;30.10;99.90;;;;;;5098685;28;19947;-74
2023/08/21 10:42:50;;;;;;;;;;;30.30;99.90;;;;;;5097447;28;19911;-73
2023/08/21 10:45:16;;;;;;;;;;;30.40;99.90;;;;;;5098637;28;19977;-74
2023/08/21 10:47:41;;;;;;;;;;;30.30;99.90;;;;;;5098976;28;19983;-73
2023/08/21 10:50:07;;;;;;;;;;;30.40;99.90;;;;;;5097041;28;20395;-74
2023/08/21 10:52:37;;;;;;;;;;;30.40;99.90;;;;;;5098103;28;20372;-74
2023/08/21 10:55:03;;;;;;;;;;;30.50;99.90;;;;;;5098593;28;20288;-73
2023/08/21 10:57:30;;;;;;;;;;;30.50;99.90;;;;;;5097229;28;19926;-74
2023/08/21 11:00:12;;;;;;;;;;;30.50;99.90;;;;;;5098709;28;20327;-74
2023/08/21 11:02:38;;;;;;;;;;;30.70;99.90;;;;;;5096924;28;19908;-75
2023/08/21 11:05:04;;;;;;;;;;;30.80;99.90;;;;;;5098301;28;19908;-74
2023/08/21 11:07:30;;;;;;;;;;;31.00;99.90;;;;;;5098459;28;19908;-74
2023/08/21 11:09:56;;;;;;;;;;;30.90;99.90;;;;;;5098440;28;19904;-74
2023/08/21 11:12:22;;;;;;;;;;;31.00;99.90;;;;;;5095323;28;19913;-75
2023/08/21 11:14:48;;;;;;;;;;;31.20;99.90;;;;;;5079618;28;19951;-75
2023/08/21 11:17:14;;;;;;;;;;;31.20;99.90;;;;;;5078597;28;19959;-76
2023/08/21 11:19:40;;;;;;;;;;;31.30;99.90;;;;;;5093826;28;20669;-75
2023/08/21 11:22:06;;;;;;;;;;;31.30;99.90;;;;;;5088423;28;19912;-75
2023/08/21 11:24:35;;;;;;;;;;;31.40;99.90;;;;;;5092400;28;19945;-75
2023/08/21 11:27:00;;;;;;;;;;;31.50;99.90;;;;;;5093688;28;19951;-74
2023/08/21 11:29:26;;;;;;;;;;;31.50;99.90;;;;;;5095186;28;19918;-75
2023/08/21 11:31:52;;;;;;;;;;;31.70;99.90;;;;;;5093084;28;19912;-74
2023/08/21 11:34:21;;;;;;;;;;;31.80;99.90;;;;;;5092012;28;20615;-75
2023/08/21 11:36:46;;;;;;;;;;;32.00;99.90;;;;;;5093173;28;19911;-75
2023/08/21 11:39:12;;;;;;;;;;;32.10;99.90;;;;;;5094752;28;19912;-75
2023/08/21 11:41:56;;;;;;;;;;;32.20;99.90;;;;;;5092796;28;19912;-74
2023/08/21 11:44:22;;;;;;;;;;;32.20;99.90;;;;;;5094151;28;19968;-75
2023/08/21 11:46:50;;;;;;;;;;;32.20;99.90;;;;;;5097496;28;20360;-75
2023/08/21 11:49:18;;;;;;;;;;;32.30;99.90;;;;;;5093858;28;19996;-74
2023/08/21 11:51:45;;;;;;;;;;;32.40;99.90;;;;;;5097571;28;19904;-75
2023/08/21 11:54:10;;;;;;;;;;;32.40;99.90;;;;;;5087393;28;20003;-75
2023/08/21 11:56:38;;;;;;;;;;;32.40;99.90;;;;;;5094314;28;19943;-75
2023/08/21 11:59:04;;;;;;;;;;;32.30;99.90;;;;;;5094535;28;20322;-75
2023/08/21 12:01:32;;;;;;;;;;;32.30;99.90;;;;;;5093894;28;20481;-75
2023/08/21 12:03:58;;;;;;;;;;;32.40;99.90;;;;;;5095270;28;19908;-75
2023/08/21 12:06:25;;;;;;;;;;;32.50;99.90;;;;;;5095070;28;19961;-75
2023/08/21 12:08:50;;;;;;;;;;;32.60;99.90;;;;;;5087231;28;20490;-74
2023/08/21 12:11:16;;;;;;;;;;;32.70;99.90;;;;;;5097125;28;19977;-75
2023/08/21 12:13:41;;;;;;;;;;;32.70;99.90;;;;;;5096744;28;19947;-74
2023/08/21 12:16:07;;;;;;;;;;;32.80;99.90;;;;;;5097001;28;19908;-75
2023/08/21 12:18:32;;;;;;;;;;;32.90;99.90;;;;;;5096570;28;19912;-74
2023/08/21 12:20:58;;;;;;;;;;;32.90;99.90;;;;;;5097008;28;19916;-74
2023/08/21 12:23:23;;;;;;;;;;;33.10;99.90;;;;;;5095243;28;19908;-75
2023/08/21 12:25:49;;;;;;;;;;;33.20;99.90;;;;;;5094177;28;19934;-74
2023/08/21 12:28:15;;;;;;;;;;;33.30;99.90;;;;;;5096665;28;19908;-74
2023/08/21 12:30:40;;;;;;;;;;;33.40;99.80;;;;;;5097115;28;19939;-74
2023/08/21 12:33:06;;;;;;;;;;;33.50;98.90;;;;;;5096775;28;20372;-74
2023/08/21 12:35:31;;;;;;;;;;;33.40;99.90;;;;;;5096643;28;19963;-75
2023/08/21 12:37:58;;;;;;;;;;;33.50;99.90;;;;;;5096295;28;20419;-73
2023/08/21 12:40:23;;;;;;;;;;;33.50;99.70;;;;;;5096559;28;19904;-75
2023/08/21 12:42:50;;;;;;;;;;;33.60;99.40;;;;;;5093639;28;19914;-72
2023/08/21 12:45:16;;;;;;;;;;;33.80;99.90;;;;;;5087414;28;19916;-72
2023/08/21 12:47:41;;;;;;;;;;;33.90;99.20;;;;;;5078611;28;20277;-72
2023/08/21 12:50:07;;;;;;;;;;;33.80;98.40;;;;;;5094772;28;19904;-73
2023/08/21 12:52:32;;;;;;;;;;;33.80;99.40;;;;;;5083770;28;19923;-73
2023/08/21 12:54:59;;;;;;;;;;;33.90;98.80;;;;;;5076531;28;20456;-73
2023/08/21 12:57:25;;;;;;;;;;;34.10;98.20;;;;;;5089930;28;19904;-72